createdAt,value
2023-04-04T00:00:40.912Z,98964.41
2023-04-04T00:05:42.805Z,98953.75
2023-04-04T00:10:45.485Z,98947.50
2023-04-04T00:15:46.956Z,98953.63
2023-04-04T00:20:48.419Z,98944.88
2023-04-04T00:25:53.770Z,98951.22
2023-04-04T00:30:55.610Z,98947.72
2023-04-04T00:35:57.533Z,98934.63
2023-04-04T00:40:59.515Z,98934.97
2023-04-04T00:46:01.081Z,98939.41
2023-04-04T00:51:02.854Z,98934.00
2023-04-04T00:56:04.374Z,98935.81
2023-04-04T01:01:06.388Z,98929.16
2023-04-04T01:06:09.338Z,98932.16
2023-04-04T01:11:11.310Z,98918.88
2023-04-04T01:16:12.972Z,98929.97
2023-04-04T01:21:17.171Z,98918.81
2023-04-04T01:26:21.632Z,98909.09
2023-04-04T01:31:56.138Z,98908.75
2023-04-04T01:37:06.483Z,98915.84
2023-04-04T01:42:10.032Z,98909.09
2023-04-04T01:47:13.037Z,98909.81
2023-04-04T01:52:15.082Z,98905.50
2023-04-04T01:57:16.763Z,98895.28
2023-04-04T02:02:18.667Z,98888.44
2023-04-04T02:07:20.606Z,98886.31
2023-04-04T02:12:22.332Z,98884.13
2023-04-04T02:17:24.415Z,98877.81
2023-04-04T02:22:26.036Z,98882.81
2023-04-04T02:27:27.477Z,98883.31
2023-04-04T02:32:28.981Z,98886.16
2023-04-04T02:37:30.529Z,98881.31
2023-04-04T02:42:33.018Z,98877.22
2023-04-04T02:47:34.564Z,98876.59
2023-04-04T02:52:36.668Z,98876.88
2023-04-04T02:57:51.083Z,98861.72
2023-04-04T03:02:57.080Z,98864.78
2023-04-04T03:08:05.062Z,98872.56
2023-04-04T03:13:06.794Z,98878.88
2023-04-04T03:18:09.089Z,98876.94
2023-04-04T03:23:10.697Z,98867.88
2023-04-04T03:28:12.644Z,98871.66
2023-04-04T03:33:15.182Z,98868.69
2023-04-04T03:38:16.688Z,98874.38
2023-04-04T03:43:18.114Z,98863.84
2023-04-04T03:48:19.525Z,98861.72
2023-04-04T03:53:21.100Z,98860.88
2023-04-04T03:58:23.172Z,98862.16
2023-04-04T04:03:26.063Z,98864.09
2023-04-04T04:08:27.771Z,98862.75
2023-04-04T04:13:29.251Z,98868.53
2023-04-04T04:18:30.885Z,98864.00
2023-04-04T04:23:32.950Z,98859.50
2023-04-04T04:28:34.552Z,98871.28
2023-04-04T04:33:41.232Z,98870.66
2023-04-04T04:38:43.341Z,98862.47
2023-04-04T04:43:45.787Z,98861.63
2023-04-04T04:48:47.486Z,98862.25
2023-04-04T04:53:53.371Z,98859.09
2023-04-04T04:58:55.554Z,98863.00
2023-04-04T05:04:00.436Z,98867.94
2023-04-04T05:09:12.015Z,98871.72
2023-04-04T05:14:14.103Z,98873.19
2023-04-04T05:19:24.229Z,98871.31
2023-04-04T05:24:30.025Z,98888.59
2023-04-04T05:29:33.649Z,98890.25
2023-04-04T05:34:36.962Z,98887.13
2023-04-04T05:39:42.355Z,98892.19
2023-04-04T05:44:45.343Z,98901.34
2023-04-04T05:49:46.992Z,98893.00
2023-04-04T05:54:48.598Z,98897.09
2023-04-04T05:59:58.776Z,98901.25
2023-04-04T06:05:00.887Z,98905.56
2023-04-04T06:10:13.943Z,98893.81
2023-04-04T06:15:15.565Z,98901.75
2023-04-04T06:20:20.885Z,98892.38
2023-04-04T06:25:24.441Z,98897.22
2023-04-04T06:30:26.720Z,98890.75
2023-04-04T06:35:28.247Z,98890.56
2023-04-04T06:40:34.580Z,98887.84
2023-04-04T06:45:36.413Z,98884.78
2023-04-04T06:50:38.546Z,98888.59
2023-04-04T06:55:44.088Z,98893.03
2023-04-04T07:00:46.123Z,98884.38
2023-04-04T07:05:47.819Z,98889.84
2023-04-04T07:10:49.469Z,98883.88
2023-04-04T07:15:51.052Z,98892.06
2023-04-04T07:20:52.458Z,98887.75
2023-04-04T07:25:53.978Z,98885.00
2023-04-04T07:30:59.653Z,98886.88
2023-04-04T07:36:01.971Z,98883.25
2023-04-04T07:41:04.367Z,98891.66
2023-04-04T07:46:06.020Z,98890.56
2023-04-04T07:51:07.519Z,98890.72
2023-04-04T07:56:08.997Z,98896.53
2023-04-04T08:01:10.562Z,98896.63
2023-04-04T08:06:12.655Z,98888.09
2023-04-04T08:11:14.114Z,98887.00
2023-04-04T08:16:15.650Z,98888.59
2023-04-04T08:21:17.612Z,98885.91
2023-04-04T08:26:19.051Z,98880.84
2023-04-04T08:31:20.532Z,98872.22
2023-04-04T08:36:22.472Z,98880.25
2023-04-04T08:41:25.128Z,98879.19
2023-04-04T08:46:27.940Z,98874.38
2023-04-04T08:51:31.697Z,98877.63
2023-04-04T08:56:35.834Z,98879.66
2023-04-04T09:01:37.976Z,98862.84
2023-04-04T09:06:40.197Z,98863.81
2023-04-04T09:11:42.987Z,98868.88
2023-04-04T09:16:44.450Z,98865.75
2023-04-04T09:21:49.844Z,98863.69
2023-04-04T09:26:53.201Z,98868.25
2023-04-04T09:31:55.113Z,98870.31
2023-04-04T09:36:56.949Z,98853.34
2023-04-04T09:41:59.263Z,98865.63
2023-04-04T09:47:30.408Z,98865.97
2023-04-04T09:52:35.854Z,98865.72
2023-04-04T09:57:37.984Z,98869.84
2023-04-04T10:02:46.871Z,98860.91
2023-04-04T10:07:48.415Z,98862.59
2023-04-04T10:12:52.555Z,98858.72
2023-04-04T10:17:55.402Z,98859.66
2023-04-04T10:22:57.174Z,98861.81
2023-04-04T10:27:58.666Z,98852.06
2023-04-04T10:33:11.582Z,98856.91
2023-04-04T10:38:14.267Z,98859.28
2023-04-04T10:43:22.262Z,98862.03
2023-04-04T10:48:26.035Z,98847.69
2023-04-04T10:53:31.798Z,98843.28
2023-04-04T10:58:39.652Z,98840.16
2023-04-04T11:04:18.722Z,98833.44
2023-04-04T11:09:56.530Z,98840.44
2023-04-04T11:15:04.245Z,98834.44
2023-04-04T11:20:08.677Z,98838.38
2023-04-04T11:25:32.991Z,98831.94
2023-04-04T11:30:44.071Z,98835.69
2023-04-04T11:35:50.128Z,98817.50
2023-04-04T11:40:56.485Z,98806.00
2023-04-04T11:46:07.898Z,98802.75
2023-04-04T11:51:11.473Z,98797.56
2023-04-04T11:56:15.911Z,98802.50
2023-04-04T12:01:19.109Z,98796.22
2023-04-04T12:06:20.961Z,98798.81
2023-04-04T12:11:25.613Z,98786.91
2023-04-04T12:16:28.335Z,98787.19
2023-04-04T12:21:33.258Z,98783.91
2023-04-04T12:26:37.748Z,98774.59
2023-04-04T12:31:42.808Z,98770.34
2023-04-04T12:36:47.652Z,98778.13
2023-04-04T12:41:57.794Z,98763.09
2023-04-04T12:47:07.525Z,98760.69
2023-04-04T12:52:33.638Z,98756.00
2023-04-04T12:57:36.619Z,98763.22
2023-04-04T13:02:39.029Z,98748.34
2023-04-04T13:07:46.213Z,98759.69
2023-04-04T13:13:02.272Z,98744.00
2023-04-04T13:18:23.697Z,98742.66
2023-04-04T13:23:25.403Z,98735.75
2023-04-04T13:28:27.178Z,98729.53
2023-04-04T13:33:28.723Z,98728.13
2023-04-04T13:38:30.580Z,98717.50
2023-04-04T13:43:32.052Z,98717.72
2023-04-04T13:48:33.608Z,98708.50
2023-04-04T13:53:35.070Z,98702.19
2023-04-04T13:58:36.519Z,98712.16
2023-04-04T14:03:37.972Z,98706.09
2023-04-04T14:08:39.678Z,98700.34
2023-04-04T14:13:41.758Z,98690.28
2023-04-04T14:18:44.464Z,98696.91
2023-04-04T14:23:45.926Z,98694.41
2023-04-04T14:28:48.263Z,98688.59
2023-04-04T14:33:49.772Z,98699.22
2023-04-04T14:38:51.385Z,98691.31
2023-04-04T14:43:52.875Z,98693.69
2023-04-04T14:48:54.348Z,98683.53
2023-04-04T14:53:59.299Z,98678.06
2023-04-04T14:59:01.893Z,98687.84
2023-04-04T15:04:03.698Z,98677.19
2023-04-04T15:09:06.124Z,98673.94
2023-04-04T15:14:07.805Z,98668.72
2023-04-04T15:19:11.030Z,98668.09
2023-04-04T15:24:12.433Z,98665.69
2023-04-04T15:29:15.514Z,98664.84
2023-04-04T15:34:16.943Z,98670.56
2023-04-04T15:39:18.353Z,98661.84
2023-04-04T15:44:20.067Z,98654.47
2023-04-04T15:49:21.501Z,98653.06
2023-04-04T15:54:23.307Z,98656.59
2023-04-04T15:59:24.906Z,98652.44
2023-04-04T16:04:26.518Z,98654.38
2023-04-04T16:09:28.021Z,98650.16
2023-04-04T16:14:29.648Z,98646.25
2023-04-04T16:19:31.163Z,98655.47
2023-04-04T16:24:32.646Z,98649.53
2023-04-04T16:29:34.219Z,98649.47
2023-04-04T16:34:38.776Z,98641.31
2023-04-04T16:39:40.891Z,98642.84
2023-04-04T16:44:42.312Z,98644.44
2023-04-04T16:49:43.799Z,98648.16
2023-04-04T16:54:45.279Z,98644.84
2023-04-04T16:59:46.696Z,98642.75
2023-04-04T17:04:48.200Z,98637.53
2023-04-04T17:09:51.348Z,98631.25
2023-04-04T17:14:53.311Z,98640.00
2023-04-04T17:19:54.811Z,98627.56
2023-04-04T17:24:56.264Z,98632.69
2023-04-04T17:29:58.771Z,98634.59
2023-04-04T17:35:00.450Z,98640.84
2023-04-04T17:40:05.264Z,98630.56
2023-04-04T21:18:07.769Z,98637.88
2023-04-04T21:23:26.108Z,98638.47
2023-04-04T21:28:45.866Z,98629.56
2023-04-04T21:33:49.219Z,98635.59
2023-04-04T21:39:13.947Z,98628.38
2023-04-04T21:44:15.628Z,98626.34
2023-04-04T21:49:17.927Z,98617.69
2023-04-04T21:54:19.524Z,98621.41
2023-04-04T21:59:20.956Z,98620.00
2023-04-04T22:04:22.475Z,98618.41
2023-04-04T22:09:25.648Z,98618.41
2023-04-04T22:14:27.212Z,98614.47
2023-04-04T22:19:34.609Z,98602.22
2023-04-04T22:24:36.010Z,98610.97
2023-04-04T22:29:37.414Z,98598.63
2023-04-04T22:34:38.818Z,98608.09
2023-04-04T22:39:42.642Z,98609.41
2023-04-04T22:44:44.430Z,98600.53
2023-04-04T22:49:48.956Z,98594.16
2023-04-04T22:54:50.372Z,98595.00
2023-04-04T22:59:51.810Z,98604.03
2023-04-04T23:04:58.523Z,98593.47
2023-04-04T23:10:00.253Z,98591.75
2023-04-04T23:15:03.088Z,98594.41
2023-04-04T23:20:07.756Z,98584.69
2023-04-04T23:25:09.354Z,98581.78
2023-04-04T23:30:11.616Z,98579.16
2023-04-04T23:35:13.068Z,98581.78
2023-04-04T23:40:14.576Z,98577.13
2023-04-04T23:45:16.181Z,98577.75
2023-04-04T23:50:19.006Z,98583.88
2023-04-04T23:55:20.523Z,98571.16
